createdAt,value
2023-08-01T00:00:11.438Z,100007.28
2023-08-01T00:02:40.198Z,99998.34
2023-08-01T00:05:09.070Z,99991.22
2023-08-01T00:07:39.834Z,99998.34
2023-08-01T00:10:08.899Z,100007.28
2023-08-01T00:12:37.164Z,99990.47
2023-08-01T00:15:06.441Z,99989.75
2023-08-01T00:17:35.938Z,99981.13
2023-08-01T00:20:04.660Z,99961.34
2023-08-01T00:22:32.695Z,99945.44
2023-08-01T00:25:02.130Z,99939.31
2023-08-01T00:27:30.552Z,99953.81
2023-08-01T00:30:09.982Z,99958.38
2023-08-01T00:32:38.888Z,99958.63
2023-08-01T00:46:31.412Z,99955.38
2023-08-01T00:49:01.012Z,99965.69
2023-08-01T00:51:29.870Z,99982.59
2023-08-01T00:53:58.090Z,99976.22
2023-08-01T00:56:26.261Z,99967.25
2023-08-01T00:58:54.128Z,99982.34
2023-08-01T01:01:23.356Z,99969.81
2023-08-01T01:03:53.311Z,99965.28
2023-08-01T01:06:25.418Z,99959.03
2023-08-01T01:08:54.910Z,99954.78
2023-08-01T01:11:22.970Z,99954.91
2023-08-01T01:13:54.276Z,99941.16
2023-08-01T01:16:23.229Z,99913.72
2023-08-01T01:18:53.936Z,99907.59
2023-08-01T01:21:23.330Z,99904.78
2023-08-01T01:23:53.083Z,99888.72
2023-08-01T01:26:22.762Z,99898.09
2023-08-01T01:28:53.161Z,99890.84
2023-08-01T01:31:22.117Z,99895.66
2023-08-01T01:33:50.041Z,99906.19
2023-08-01T01:36:18.057Z,99913.09
2023-08-01T01:38:47.637Z,99918.97
2023-08-01T01:41:15.681Z,99935.44
2023-08-01T01:43:43.706Z,99923.94
2023-08-01T01:46:12.699Z,99918.81
2023-08-01T01:48:40.611Z,99942.22
2023-08-01T01:51:08.553Z,99929.03
2023-08-01T01:53:36.523Z,99927.19
2023-08-01T01:56:06.270Z,99926.59
2023-08-01T01:58:38.177Z,99931.53
2023-08-01T02:01:06.528Z,99938.19
2023-08-01T02:03:34.543Z,99955.09
2023-08-01T02:06:02.409Z,99959.75
2023-08-01T02:08:30.393Z,99962.84
2023-08-01T02:10:59.523Z,99975.06
2023-08-01T02:13:30.285Z,99980.66
2023-08-01T02:15:59.397Z,99994.91
2023-08-01T02:18:27.806Z,100008.63
2023-08-01T02:20:55.966Z,99999.34
2023-08-01T02:23:24.008Z,100017.94
2023-08-01T02:25:51.923Z,100020.78
2023-08-01T02:28:19.969Z,100032.28
2023-08-01T02:30:50.625Z,100034.97
2023-08-01T02:33:18.698Z,100035.25
2023-08-01T02:35:48.584Z,100035.13
2023-08-01T02:38:16.555Z,100034.72
2023-08-01T02:40:44.584Z,100037.28
2023-08-01T02:43:12.621Z,100024.72
2023-08-01T02:45:40.716Z,100011.59
2023-08-01T02:48:13.086Z,100013.94
2023-08-01T02:50:41.339Z,99999.09
2023-08-01T02:53:09.538Z,100011.78
2023-08-01T02:55:37.418Z,100000.28
2023-08-01T02:58:05.338Z,99994.66
2023-08-01T03:00:33.781Z,99986.56
2023-08-01T03:03:01.743Z,99978.31
2023-08-01T03:05:31.082Z,99974.50
2023-08-01T03:07:59.402Z,99969.25
2023-08-01T03:10:36.198Z,99972.06
2023-08-01T03:13:05.244Z,99975.22
2023-08-01T03:15:33.514Z,99946.84
2023-08-01T03:18:02.137Z,99943.84
2023-08-01T03:20:31.656Z,99922.28
2023-08-01T03:22:59.663Z,99915.16
2023-08-01T03:25:27.664Z,99914.31
2023-08-01T03:27:56.077Z,99930.38
2023-08-01T03:30:24.069Z,99939.31
2023-08-01T03:32:52.128Z,99932.66
2023-08-01T03:35:20.446Z,99929.13
2023-08-01T03:37:49.822Z,99920.75
2023-08-01T03:40:17.840Z,99912.38
2023-08-01T03:42:50.743Z,99898.22
2023-08-01T03:45:19.528Z,99893.38
2023-08-01T03:47:47.507Z,99887.84
2023-08-01T03:50:18.342Z,99880.47
2023-08-01T03:52:46.439Z,99861.59
2023-08-01T03:55:16.145Z,99862.31
2023-08-01T03:57:44.200Z,99843.16
2023-08-01T04:00:14.867Z,99826.97
2023-08-01T04:02:45.869Z,99816.03
2023-08-01T04:05:15.597Z,99787.50
2023-08-01T04:07:43.871Z,99779.84
2023-08-01T04:10:12.442Z,99777.16
2023-08-01T04:12:43.236Z,99766.91
2023-08-01T04:15:11.945Z,99760.66
2023-08-01T04:17:40.037Z,99747.91
2023-08-01T04:20:09.683Z,99735.25
2023-08-01T04:22:37.831Z,99731.16
2023-08-01T04:25:07.440Z,99710.72
2023-08-01T04:27:35.441Z,99706.88
2023-08-01T04:30:05.441Z,99687.28
2023-08-01T04:32:33.514Z,99691.53
2023-08-01T04:35:01.538Z,99701.19
2023-08-01T04:37:29.499Z,99674.50
2023-08-01T04:39:57.528Z,99689.84
2023-08-01T04:42:25.482Z,99683.84
2023-08-01T04:44:53.387Z,99664.69
2023-08-01T04:47:23.420Z,99653.59
2023-08-01T04:49:51.481Z,99644.22
2023-08-01T04:52:20.569Z,99617.53
2023-08-01T04:54:48.721Z,99611.13
2023-08-01T04:57:16.703Z,99602.06
2023-08-01T04:59:44.938Z,99603.03
2023-08-01T05:02:12.865Z,99609.44
2023-08-01T05:04:44.433Z,99611.13
2023-08-01T05:07:12.346Z,99613.38
2023-08-01T05:09:40.299Z,99604.00
2023-08-01T05:12:10.083Z,99621.31
2023-08-01T05:14:38.105Z,99590.63
2023-08-01T05:17:06.894Z,99594.31
2023-08-01T05:19:35.005Z,99564.44
2023-08-01T05:22:04.659Z,99539.16
2023-08-01T05:24:32.973Z,99522.09
2023-08-01T05:27:01.204Z,99526.38
2023-08-01T05:29:29.223Z,99524.91
2023-08-01T05:31:57.169Z,99505.84
2023-08-01T05:34:25.069Z,99511.69
2023-08-01T05:36:53.077Z,99510.06
2023-08-01T05:39:22.439Z,99517.44
2023-08-01T05:41:51.571Z,99523.44
2023-08-01T05:44:19.489Z,99485.50
2023-08-01T05:46:47.772Z,99465.56
2023-08-01T05:49:15.841Z,99444.66
2023-08-01T05:51:43.848Z,99441.47
2023-08-01T05:54:12.818Z,99418.56
2023-08-01T05:56:42.716Z,99400.47
2023-08-01T05:59:10.936Z,99432.97
2023-08-01T06:01:38.908Z,99425.94
2023-08-01T06:04:07.128Z,99410.78
2023-08-01T06:06:35.184Z,99353.44
2023-08-01T06:09:03.771Z,99391.66
2023-08-01T06:11:31.992Z,99345.72
2023-08-01T06:14:01.384Z,99337.97
2023-08-01T06:16:29.382Z,99341.69
2023-08-01T06:18:57.691Z,99327.41
2023-08-01T06:21:25.723Z,99343.13
2023-08-01T06:23:53.815Z,99381.78
2023-08-01T06:26:21.819Z,99386.66
2023-08-01T06:28:49.901Z,99418.22
2023-08-01T06:31:19.391Z,99432.38
2023-08-01T06:33:47.499Z,99423.34
2023-08-01T06:36:17.607Z,99444.88
2023-08-01T06:38:46.005Z,99484.94
2023-08-01T06:41:14.080Z,99481.44
2023-08-01T06:43:42.038Z,99501.38
2023-08-01T06:46:10.908Z,99521.34
2023-08-01T06:48:40.245Z,99522.66
2023-08-01T06:51:08.305Z,99549.19
2023-08-01T06:53:36.406Z,99546.22
2023-08-01T06:56:05.511Z,99549.88
2023-08-01T06:58:33.679Z,99564.13
2023-08-01T07:01:01.680Z,99567.69
2023-08-01T07:03:29.727Z,99512.72
2023-08-01T07:05:59.183Z,99469.22
2023-08-01T07:08:30.336Z,99421.63
2023-08-01T07:10:58.324Z,99393.38
2023-08-01T07:13:26.559Z,99366.53
2023-08-01T07:15:54.678Z,99388.09
2023-08-01T07:18:22.794Z,99377.34
2023-08-01T07:20:50.783Z,99280.56
2023-08-01T07:23:20.141Z,99254.16
2023-08-01T07:25:48.659Z,99235.22
2023-08-01T07:28:16.694Z,99212.03
2023-08-01T07:30:44.635Z,99171.22
2023-08-01T07:33:12.676Z,99201.38
2023-08-01T07:35:40.764Z,99235.13
2023-08-01T07:38:09.510Z,99227.44
2023-08-01T07:40:40.174Z,99169.81
2023-08-01T07:43:08.095Z,99111.50
2023-08-01T07:45:36.729Z,99086.19
2023-08-01T07:48:05.080Z,99098.06
2023-08-01T07:50:35.564Z,99042.69
2023-08-01T07:53:03.558Z,99014.53
2023-08-01T07:55:31.449Z,99051.91
2023-08-01T07:58:03.319Z,99018.63
2023-08-01T08:00:31.246Z,98957.13
2023-08-01T08:02:59.877Z,98992.88
2023-08-01T08:05:28.461Z,98876.19
2023-08-01T08:07:56.502Z,98924.06
2023-08-01T08:10:24.835Z,98921.47
2023-08-01T08:12:52.921Z,98913.28
2023-08-01T08:15:24.532Z,98926.56
2023-08-01T08:17:53.048Z,98900.88
2023-08-01T08:20:21.178Z,98878.41
2023-08-01T08:22:49.150Z,98876.16
2023-08-01T08:25:17.164Z,98864.56
2023-08-01T08:27:45.203Z,98908.03
2023-08-01T08:30:13.920Z,98937.88
2023-08-01T08:32:44.622Z,98951.00
2023-08-01T08:35:12.874Z,98991.59
2023-08-01T08:37:41.208Z,98909.19
2023-08-01T08:40:10.301Z,98809.56
2023-08-01T08:42:38.449Z,98817.53
2023-08-01T08:45:08.150Z,98806.31
2023-08-01T08:47:40.457Z,98831.56
2023-08-01T08:50:11.399Z,98758.63
2023-08-01T08:52:40.001Z,98802.66
2023-08-01T08:55:09.785Z,98810.56
2023-08-01T08:57:38.134Z,98802.72
2023-08-01T09:00:11.724Z,98801.13
2023-08-01T09:02:39.733Z,98828.88
2023-08-01T09:05:09.715Z,98857.88
2023-08-01T09:07:44.183Z,98832.09
2023-08-01T09:10:12.394Z,98835.47
2023-08-01T09:12:40.559Z,98798.63
2023-08-01T09:15:09.861Z,98783.69
2023-08-01T09:17:37.941Z,98755.91
2023-08-01T09:20:07.188Z,98754.31
2023-08-01T09:22:45.570Z,98697.94
2023-08-01T09:25:13.980Z,98742.16
2023-08-01T09:27:42.150Z,98778.13
2023-08-01T09:30:12.364Z,98828.56
2023-08-01T09:32:40.384Z,98834.94
2023-08-01T09:35:08.842Z,98851.00
2023-08-01T09:37:41.924Z,98836.75
2023-08-01T09:40:12.395Z,98859.81
2023-08-01T09:42:41.443Z,98867.75
2023-08-01T09:45:15.080Z,98886.66
2023-08-01T09:47:44.501Z,98904.28
2023-08-01T09:50:21.537Z,98881.09
2023-08-01T09:52:54.480Z,98913.81
2023-08-01T09:55:35.784Z,98958.44
2023-08-01T09:58:04.414Z,98951.53
2023-08-01T10:00:33.014Z,98977.59
2023-08-01T10:03:05.604Z,99026.28
2023-08-01T10:05:34.836Z,99045.94
2023-08-01T10:08:04.701Z,99053.91
2023-08-01T10:10:35.142Z,99082.84
2023-08-01T10:13:04.179Z,99137.78
2023-08-01T10:15:32.993Z,99112.59
2023-08-01T10:18:01.582Z,99122.00
2023-08-01T10:20:30.025Z,99086.00
2023-08-01T10:22:58.829Z,99091.03
2023-08-01T10:25:27.803Z,99125.44
2023-08-01T10:28:04.452Z,99165.13
2023-08-01T10:30:32.462Z,99234.41
2023-08-01T10:33:02.323Z,99227.53
2023-08-01T10:35:37.938Z,99224.16
2023-08-01T10:38:07.965Z,99228.47
2023-08-01T10:40:40.512Z,99144.13
2023-08-01T10:43:21.895Z,99122.50
2023-08-01T10:45:50.177Z,99097.50
2023-08-01T10:48:18.127Z,99100.94
2023-08-01T10:50:56.817Z,99065.25
2023-08-01T10:53:25.484Z,99036.34
2023-08-01T10:55:53.423Z,99040.06
2023-08-01T10:58:28.986Z,99048.34
2023-08-01T11:01:04.384Z,99076.88
2023-08-01T11:03:43.375Z,99078.69
2023-08-01T11:06:11.406Z,99047.41
2023-08-01T11:08:40.668Z,99043.47
2023-08-01T11:11:15.117Z,98977.88
2023-08-01T11:13:53.298Z,98960.50
2023-08-01T11:16:22.006Z,98992.28
2023-08-01T11:18:50.444Z,99008.38
2023-08-01T11:21:28.617Z,98975.38
2023-08-01T11:23:57.235Z,98987.38
2023-08-01T11:26:28.064Z,99049.78
2023-08-01T11:28:57.578Z,99031.50
2023-08-01T11:31:26.612Z,99006.47
2023-08-01T11:33:58.337Z,98983.81
2023-08-01T11:36:28.859Z,98997.50
2023-08-01T11:38:59.555Z,98950.72
2023-08-01T11:41:28.966Z,98970.50
2023-08-01T11:44:03.188Z,98959.22
2023-08-01T11:46:33.844Z,99007.19
2023-08-01T11:49:02.917Z,99063.34
2023-08-01T11:51:30.961Z,99050.16
2023-08-01T11:54:02.947Z,99118.44
2023-08-01T11:56:31.197Z,99062.25
2023-08-01T11:59:00.945Z,99060.13
2023-08-01T12:01:30.851Z,99111.91
2023-08-01T12:03:59.663Z,99082.53
2023-08-01T12:06:27.864Z,99188.66
2023-08-01T12:08:56.096Z,99021.06
2023-08-01T12:11:25.219Z,99017.53
2023-08-01T12:14:05.637Z,99042.66
2023-08-01T12:16:33.821Z,98936.66
2023-08-01T12:19:01.991Z,98900.13
2023-08-01T12:21:30.467Z,98848.91
2023-08-01T12:23:58.499Z,98861.34
2023-08-01T12:26:26.693Z,98799.19
2023-08-01T12:28:54.610Z,98865.63
2023-08-01T12:31:25.120Z,98801.41
2023-08-01T12:33:54.853Z,98748.34
2023-08-01T12:36:23.549Z,98677.19
2023-08-01T12:38:53.111Z,98742.19
2023-08-01T12:41:21.180Z,98770.69
2023-08-01T12:43:49.163Z,98742.94
2023-08-01T12:46:17.188Z,98658.88
2023-08-01T12:48:47.086Z,98670.13
2023-08-01T12:51:15.873Z,98701.63
2023-08-01T12:53:44.275Z,98665.88
2023-08-01T12:56:12.396Z,98599.28
2023-08-01T12:58:40.523Z,98527.91
2023-08-01T13:01:09.173Z,98503.88
2023-08-01T13:03:37.434Z,98519.09
2023-08-01T13:06:07.108Z,98566.88
2023-08-01T13:08:35.332Z,98548.66
2023-08-01T13:11:03.987Z,98578.88
2023-08-01T13:13:31.957Z,98513.53
2023-08-01T13:16:00.881Z,98403.38
2023-08-01T13:18:29.300Z,98411.94
2023-08-01T13:21:02.582Z,98394.34
2023-08-01T13:23:32.777Z,98412.56
2023-08-01T13:26:03.220Z,98398.91
2023-08-01T13:28:34.077Z,98393.47
2023-08-01T13:31:02.116Z,98310.66
2023-08-01T13:33:30.209Z,98332.63
2023-08-01T13:35:58.984Z,98338.69
2023-08-01T13:38:26.989Z,98444.88
2023-08-01T13:40:56.381Z,98394.16
2023-08-01T13:43:24.749Z,98426.19
2023-08-01T13:45:54.806Z,98375.34
2023-08-01T13:48:23.052Z,98344.00
2023-08-01T13:50:50.965Z,98353.63
2023-08-01T13:53:19.043Z,98458.50
2023-08-01T13:55:47.484Z,98522.91
2023-08-01T13:58:17.067Z,98635.63
2023-08-01T14:00:48.503Z,98637.28
2023-08-01T14:03:16.555Z,98718.59
2023-08-01T14:05:44.898Z,98652.97
2023-08-01T14:08:13.085Z,98614.44
2023-08-01T14:10:41.213Z,98602.53
2023-08-01T14:13:09.217Z,98540.00
2023-08-01T14:15:38.628Z,98499.81
2023-08-01T14:18:06.878Z,98447.09
2023-08-01T14:20:34.832Z,98401.50
2023-08-01T14:23:02.685Z,98431.84
2023-08-01T14:25:35.701Z,98485.41
2023-08-01T14:28:04.490Z,98490.06
2023-08-01T14:30:32.580Z,98398.47
2023-08-01T14:33:03.840Z,98438.22
2023-08-01T14:35:32.181Z,98397.44
2023-08-01T14:38:00.647Z,98397.78
2023-08-01T14:40:29.183Z,98463.53
2023-08-01T14:42:57.680Z,98436.25
2023-08-01T14:45:25.772Z,98482.25
2023-08-01T14:47:53.818Z,98445.66
2023-08-01T14:50:23.345Z,98538.47
2023-08-01T14:52:51.467Z,98596.72
2023-08-01T14:55:19.456Z,98648.34
2023-08-01T14:57:47.739Z,98654.47
2023-08-01T15:00:17.222Z,98608.41
2023-08-01T15:02:45.444Z,98510.22
2023-08-01T15:05:15.084Z,98450.84
2023-08-01T15:07:44.843Z,98419.97
2023-08-01T15:10:13.439Z,98432.50
2023-08-01T15:12:41.515Z,98428.59
2023-08-01T15:15:11.208Z,98467.53
2023-08-01T15:17:39.380Z,98466.13
2023-08-01T15:20:09.968Z,98461.50
2023-08-01T15:22:38.202Z,98488.25
2023-08-01T15:25:08.737Z,98503.38
2023-08-01T15:27:36.821Z,98544.47
2023-08-01T15:30:05.980Z,98516.94
2023-08-01T15:32:36.123Z,98596.53
2023-08-01T15:35:04.976Z,98589.50
2023-08-01T15:37:33.144Z,98576.94
2023-08-01T15:40:01.109Z,98555.06
2023-08-01T15:42:30.589Z,98545.91
2023-08-01T15:44:58.723Z,98549.25
2023-08-01T15:47:26.903Z,98505.31
2023-08-01T15:49:55.385Z,98619.53
2023-08-01T15:52:23.558Z,98604.41
2023-08-01T15:54:51.721Z,98588.72
2023-08-01T15:57:20.869Z,98559.44
2023-08-01T15:59:50.342Z,98644.41
2023-08-01T16:02:18.606Z,98636.03
2023-08-01T16:04:47.516Z,98683.34
2023-08-01T16:07:18.395Z,98689.69
2023-08-01T16:09:46.412Z,98714.09
2023-08-01T16:12:14.544Z,98749.56
2023-08-01T16:14:42.691Z,98731.09
2023-08-01T16:17:12.486Z,98642.81
2023-08-01T16:19:41.100Z,98572.88
2023-08-01T16:22:09.975Z,98630.63
2023-08-01T16:24:41.095Z,98592.84
2023-08-01T16:27:09.169Z,98603.09
2023-08-01T16:29:37.159Z,98603.66
2023-08-01T16:32:06.635Z,98605.69
2023-08-01T16:34:41.245Z,98596.75
2023-08-01T16:37:11.257Z,98584.88
2023-08-01T16:39:40.674Z,98582.81
2023-08-01T16:42:08.848Z,98605.38
2023-08-01T16:44:37.122Z,98629.16
2023-08-01T16:47:05.377Z,98579.81
2023-08-01T16:49:33.569Z,98591.72
2023-08-01T16:52:03.082Z,98567.25
2023-08-01T16:54:31.326Z,98559.44
2023-08-01T16:56:59.384Z,98577.41
2023-08-01T16:59:27.449Z,98593.53
2023-08-01T17:01:55.628Z,98581.03
2023-08-01T17:04:24.280Z,98621.75
2023-08-01T17:06:52.237Z,98657.25
2023-08-01T17:09:21.997Z,98673.53
2023-08-01T17:11:51.243Z,98686.69
2023-08-01T17:14:19.662Z,98664.25
2023-08-01T17:16:48.320Z,98627.13
2023-08-01T17:19:16.658Z,98634.16
2023-08-01T17:21:44.810Z,98642.09
2023-08-01T17:24:15.970Z,98626.59
2023-08-01T17:26:45.459Z,98607.50
2023-08-01T17:29:14.339Z,98610.72
2023-08-01T17:31:42.403Z,98609.50
2023-08-01T17:34:11.192Z,98626.34
2023-08-01T17:36:40.331Z,98655.97
2023-08-01T17:39:08.686Z,98665.41
2023-08-01T17:41:36.621Z,98680.53
2023-08-01T17:44:06.502Z,98709.03
2023-08-01T17:46:34.899Z,98756.03
2023-08-01T17:49:03.083Z,98782.53
2023-08-01T17:51:32.539Z,98800.91
2023-08-01T17:54:00.514Z,98832.56
2023-08-01T17:56:28.704Z,98863.53
2023-08-01T17:58:56.770Z,98881.97
2023-08-01T18:01:28.091Z,98901.25
2023-08-01T18:03:56.015Z,98909.22
2023-08-01T18:06:24.194Z,98924.28
2023-08-01T18:08:52.418Z,98960.78
2023-08-01T18:11:20.638Z,98959.59
2023-08-01T18:13:49.838Z,98957.75
2023-08-01T18:16:22.116Z,98971.63
2023-08-01T18:18:53.785Z,98975.50
2023-08-01T18:21:22.323Z,98989.34
2023-08-01T18:23:50.527Z,99004.03
2023-08-01T18:26:22.706Z,99010.13
2023-08-01T18:28:54.554Z,99019.41
2023-08-01T18:31:23.467Z,99039.03
2023-08-01T18:33:53.157Z,99050.69
2023-08-01T18:36:26.245Z,99050.31
2023-08-01T18:39:02.878Z,99082.25
2023-08-01T18:41:31.507Z,99077.16
2023-08-01T18:44:01.919Z,99097.75
2023-08-01T18:46:33.863Z,99104.44
2023-08-01T18:49:05.137Z,99115.91
2023-08-01T18:51:33.796Z,99109.78
2023-08-01T18:54:08.002Z,99119.41
2023-08-01T18:56:37.484Z,99113.97
2023-08-01T18:59:05.542Z,99127.47
2023-08-01T19:01:33.494Z,99124.34
2023-08-01T19:04:02.542Z,99142.72
2023-08-01T19:06:32.217Z,99157.84
2023-08-01T19:09:20.161Z,99159.31
2023-08-01T19:11:49.349Z,99173.63
2023-08-01T19:14:17.536Z,99187.03
2023-08-01T19:16:46.651Z,99199.16
2023-08-01T19:19:14.961Z,99208.88
2023-08-01T19:21:44.612Z,99228.38
2023-08-01T19:24:12.760Z,99241.84
2023-08-01T19:26:41.510Z,99244.56
2023-08-01T19:29:10.738Z,99241.72
2023-08-01T19:31:38.955Z,99246.88
2023-08-01T19:34:06.951Z,99266.44
2023-08-01T19:36:35.160Z,99276.22
2023-08-01T19:39:09.588Z,99269.84
2023-08-01T19:41:44.901Z,99268.38
2023-08-01T19:44:13.264Z,99254.66
2023-08-01T19:46:41.789Z,99254.59
2023-08-01T19:49:09.910Z,99251.66
2023-08-01T19:51:41.048Z,99259.19
2023-08-01T19:54:11.092Z,99257.09
2023-08-01T19:56:39.800Z,99263.81
2023-08-01T19:59:08.113Z,99274.28
2023-08-01T20:01:36.104Z,99286.16
2023-08-01T20:04:04.301Z,99291.66
2023-08-01T20:06:33.581Z,99288.34
2023-08-01T20:09:01.781Z,99276.53
2023-08-01T20:11:31.194Z,99266.44
2023-08-01T20:13:59.254Z,99261.97
2023-08-01T20:16:27.783Z,99262.91
2023-08-01T20:18:55.816Z,99267.88
2023-08-01T20:21:23.714Z,99279.53
2023-08-01T20:23:52.158Z,99297.25
2023-08-01T20:26:20.203Z,99284.75
2023-08-01T20:28:49.963Z,99284.63
2023-08-01T20:31:18.123Z,99287.31
2023-08-01T20:33:46.436Z,99287.91
2023-08-01T20:36:14.708Z,99303.69
2023-08-01T20:38:42.705Z,99295.81
2023-08-01T20:41:14.746Z,99305.16
2023-08-01T20:43:44.499Z,99305.34
2023-08-01T20:46:14.196Z,99313.75
2023-08-01T20:48:42.371Z,99303.69
2023-08-01T20:51:10.493Z,99313.78
2023-08-01T20:53:38.859Z,99320.75
2023-08-01T20:56:06.828Z,99321.06
2023-08-01T20:58:35.069Z,99329.59
2023-08-01T21:01:04.809Z,99338.81
2023-08-01T21:03:34.460Z,99341.78
2023-08-01T21:06:02.687Z,99342.47
2023-08-01T21:08:30.750Z,99346.91
2023-08-01T21:10:58.770Z,99340.63
2023-08-01T21:13:27.729Z,99339.25
2023-08-01T21:15:55.856Z,99340.38
2023-08-01T21:18:26.497Z,99344.91
2023-08-01T21:20:56.210Z,99358.53
2023-08-01T21:23:24.960Z,99360.22
2023-08-01T21:25:53.072Z,99362.91
2023-08-01T21:28:21.217Z,99367.16
2023-08-01T21:30:50.773Z,99365.03
2023-08-01T21:33:24.463Z,99364.47
2023-08-01T21:35:59.320Z,99369.00
2023-08-01T21:38:27.369Z,99361.22
2023-08-01T21:40:55.390Z,99371.72
2023-08-01T21:43:23.510Z,99359.81
2023-08-01T21:45:57.019Z,99362.66
2023-08-01T21:48:25.164Z,99376.25
2023-08-01T21:50:53.354Z,99390.84
2023-08-01T21:53:23.904Z,99385.63
2023-08-01T21:55:51.926Z,99393.41
2023-08-01T21:58:20.020Z,99399.66
2023-08-01T22:00:48.400Z,99404.19
2023-08-01T22:03:16.511Z,99402.47
2023-08-01T22:05:44.909Z,99397.09
2023-08-01T22:08:13.309Z,99409.28
2023-08-01T22:10:43.039Z,99401.19
2023-08-01T22:13:11.443Z,99407.28
2023-08-01T22:15:39.522Z,99414.94
2023-08-01T22:18:07.663Z,99405.88
2023-08-01T22:20:35.821Z,99415.91
2023-08-01T22:23:03.911Z,99416.75
2023-08-01T22:25:32.048Z,99420.47
2023-08-01T22:28:03.364Z,99423.56
2023-08-01T22:30:31.387Z,99425.69
2023-08-01T22:32:59.991Z,99427.94
2023-08-01T22:35:29.727Z,99415.19
2023-08-01T22:37:57.983Z,99405.97
2023-08-01T22:40:26.164Z,99405.50
2023-08-01T22:42:54.379Z,99400.84
2023-08-01T22:45:23.902Z,99410.03
2023-08-01T22:47:54.146Z,99431.44
2023-08-01T22:50:23.727Z,99450.63
2023-08-01T22:52:51.899Z,99460.00
2023-08-01T22:55:20.974Z,99472.88
2023-08-01T22:57:49.220Z,99481.97
2023-08-01T23:00:17.474Z,99480.44
2023-08-01T23:02:47.169Z,99479.72
2023-08-01T23:05:15.552Z,99485.25
2023-08-01T23:07:43.868Z,99471.34
2023-08-01T23:10:12.300Z,99469.78
2023-08-01T23:12:40.513Z,99479.44
2023-08-01T23:15:09.794Z,99474.19
2023-08-01T23:17:41.121Z,99466.94
2023-08-01T23:20:17.116Z,99460.13
2023-08-01T23:22:45.434Z,99469.09
2023-08-01T23:25:13.500Z,99464.81
2023-08-01T23:27:41.582Z,99458.59
2023-08-01T23:30:10.640Z,99439.91
2023-08-01T23:32:39.140Z,99430.94
2023-08-01T23:35:08.108Z,99433.63
2023-08-01T23:37:38.069Z,99427.09
2023-08-01T23:40:07.074Z,99420.34
2023-08-01T23:42:38.178Z,99414.94
2023-08-01T23:45:07.460Z,99420.03
2023-08-01T23:47:35.434Z,99414.78
2023-08-01T23:50:03.669Z,99416.63
2023-08-01T23:52:33.460Z,99407.97
2023-08-01T23:55:03.032Z,99434.66
2023-08-01T23:57:31.153Z,99421.44
2023-08-01T23:59:59.117Z,99434.91
